Terminal Aerodrome Forecast
Issued by NWS Paducah, KY

Home | Current Version | Previous Version | Text Only | Print | Product List | Glossary On
Versions: 1 2 3 4 5 6 7 8 9 10 11 12 13 14 15 16 17 18 19 20 21 22 23 24
633
FTUS43 KPAH 252115 AAC
TAFPAH
TAF AMD
KPAH 252115Z 2521/2618 17006KT P6SM VCSH SCT025 BKN080
     FM260000 18006KT P6SM BKN050
     FM260900 19004KT 5SM BR BKN022
     FM261400 20010KT P6SM BKN040=

USA.gov is the U.S. government's official web portal to all federal, state and local government web resources and services.